createdAt,value
2023-07-19T00:00:08.479Z,14.41
2023-07-19T00:02:40.855Z,14.40
2023-07-19T00:05:09.289Z,14.42
2023-07-19T00:07:36.348Z,14.46
2023-07-19T00:10:04.663Z,14.49
2023-07-19T00:12:46.107Z,14.47
2023-07-19T00:15:18.167Z,14.44
2023-07-19T00:17:45.732Z,14.40
2023-07-19T00:20:13.183Z,14.37
2023-07-19T00:22:40.206Z,14.35
2023-07-19T00:25:07.692Z,14.29
2023-07-19T00:27:34.591Z,14.25
2023-07-19T00:30:01.502Z,14.23
2023-07-19T00:32:28.470Z,14.19
2023-07-19T00:34:55.388Z,14.16
2023-07-19T00:37:22.417Z,14.10
2023-07-19T00:39:49.817Z,14.11
2023-07-19T00:42:16.633Z,14.08
2023-07-19T00:44:43.735Z,14.04
2023-07-19T00:47:10.903Z,14.03
2023-07-19T00:49:41.517Z,14.01
2023-07-19T00:52:09.607Z,13.96
2023-07-19T00:54:37.821Z,13.93
2023-07-19T00:57:08.365Z,13.87
2023-07-19T00:59:35.546Z,13.82
2023-07-19T01:02:03.099Z,13.79
2023-07-19T01:04:31.034Z,13.76
2023-07-19T01:06:58.409Z,13.74
2023-07-19T01:09:26.955Z,13.72
2023-07-19T01:11:54.170Z,13.68
2023-07-19T01:14:21.021Z,13.64
2023-07-19T01:16:47.873Z,13.60
2023-07-19T01:19:16.576Z,13.58
2023-07-19T01:21:43.471Z,13.61
2023-07-19T01:24:10.337Z,13.62
2023-07-19T01:26:37.161Z,13.62
2023-07-19T01:29:04.212Z,13.64
2023-07-19T01:31:31.070Z,13.66
2023-07-19T01:33:58.018Z,13.67
2023-07-19T01:36:25.390Z,13.66
2023-07-19T01:38:53.387Z,13.64
2023-07-19T01:41:22.120Z,13.62
2023-07-19T01:43:49.217Z,13.59
2023-07-19T01:46:16.870Z,13.56
2023-07-19T01:48:43.940Z,13.55
2023-07-19T01:51:10.851Z,13.55
2023-07-19T01:53:37.854Z,13.56
2023-07-19T01:56:04.976Z,13.57
2023-07-19T01:58:31.942Z,13.59
2023-07-19T02:00:59.577Z,13.61
2023-07-19T02:03:26.626Z,13.61
2023-07-19T02:05:58.193Z,13.61
2023-07-19T02:08:25.752Z,13.59
2023-07-19T02:10:52.762Z,13.59
2023-07-19T02:13:19.616Z,13.59
2023-07-19T02:15:47.705Z,13.57
2023-07-19T02:18:14.778Z,13.54
2023-07-19T02:20:45.820Z,13.53
2023-07-19T02:23:13.191Z,13.53
2023-07-19T02:25:42.251Z,13.55
2023-07-19T02:28:09.794Z,13.58
2023-07-19T02:30:36.784Z,13.59
2023-07-19T02:33:03.657Z,13.57
2023-07-19T02:35:30.970Z,13.54
2023-07-19T02:37:57.865Z,13.51
2023-07-19T02:40:24.830Z,13.50
2023-07-19T02:42:51.809Z,13.48
2023-07-19T02:45:18.693Z,13.45
2023-07-19T02:47:45.526Z,13.45
2023-07-19T02:50:12.569Z,13.46
2023-07-19T02:52:39.629Z,13.44
2023-07-19T02:55:06.703Z,13.43
2023-07-19T02:57:33.657Z,13.40
2023-07-19T03:00:00.641Z,13.39
2023-07-19T03:02:27.507Z,13.40
2023-07-19T03:04:54.407Z,13.39
2023-07-19T03:07:22.713Z,13.39
2023-07-19T03:09:49.517Z,13.44
2023-07-19T03:12:16.480Z,13.45
2023-07-19T03:14:44.029Z,13.47
2023-07-19T03:17:11.328Z,13.48
2023-07-19T03:19:38.393Z,13.45
2023-07-19T03:22:05.841Z,13.44
2023-07-19T03:24:32.992Z,13.44
2023-07-19T03:26:59.824Z,13.48
2023-07-19T03:29:26.918Z,13.49
2023-07-19T03:31:53.816Z,13.55
2023-07-19T03:34:22.332Z,13.61
2023-07-19T03:36:49.121Z,13.66
2023-07-19T03:39:16.756Z,13.69
2023-07-19T03:41:43.591Z,13.75
2023-07-19T03:44:10.886Z,13.82
2023-07-19T03:46:38.699Z,13.90
2023-07-19T06:10:46.942Z,22.61
2023-07-19T07:18:45.843Z,29.77
2023-07-19T13:34:44.467Z,37.08
2023-07-19T13:38:15.096Z,37.00
2023-07-19T13:48:56.000Z,37.31
2023-07-19T13:52:19.332Z,37.63
2023-07-19T14:00:24.483Z,37.68
2023-07-19T14:05:08.976Z,37.84
2023-07-19T14:07:25.160Z,37.45
2023-07-19T14:13:09.932Z,36.32
2023-07-19T14:19:16.974Z,34.63
2023-07-19T14:35:04.833Z,32.62
2023-07-19T14:42:09.072Z,31.77
2023-07-19T14:44:41.704Z,31.49
2023-07-19T14:48:15.867Z,31.33
2023-07-19T14:57:57.640Z,30.58
2023-07-19T15:03:03.636Z,30.52
2023-07-19T15:05:37.554Z,30.47
2023-07-19T15:08:06.080Z,30.45
2023-07-19T15:10:33.364Z,30.36
2023-07-19T15:13:39.566Z,30.32
2023-07-19T15:16:20.472Z,30.17
2023-07-19T15:18:50.525Z,30.09
2023-07-19T15:24:33.275Z,29.99
2023-07-19T15:27:20.547Z,29.93
2023-07-19T15:29:47.405Z,29.90
2023-07-19T15:32:14.292Z,29.84
2023-07-19T15:34:41.115Z,29.77
2023-07-19T15:37:07.937Z,29.65
2023-07-19T15:39:34.811Z,29.53
2023-07-19T15:42:02.549Z,29.43
2023-07-19T15:44:36.325Z,29.37
2023-07-19T15:47:04.893Z,29.30
2023-07-19T15:49:32.106Z,29.29
2023-07-19T15:51:59.859Z,29.27
2023-07-19T15:54:26.954Z,29.22
2023-07-19T15:56:54.843Z,29.24
2023-07-19T15:59:21.865Z,29.23
2023-07-19T16:01:48.938Z,29.21
2023-07-19T16:04:16.288Z,29.20
2023-07-19T16:06:43.426Z,29.17
2023-07-19T16:09:10.241Z,29.11
2023-07-19T16:11:37.288Z,29.05
2023-07-19T16:14:07.393Z,28.96
2023-07-19T16:16:37.358Z,28.88
2023-07-19T16:19:04.262Z,28.80
2023-07-19T16:21:31.202Z,28.76
2023-07-19T16:23:58.347Z,28.68
2023-07-19T16:26:25.641Z,28.62
2023-07-19T16:28:52.689Z,28.53
2023-07-19T16:31:21.028Z,28.47
2023-07-19T16:33:48.268Z,28.40
2023-07-19T16:36:15.292Z,28.35
2023-07-19T16:38:42.267Z,28.29
2023-07-19T16:41:09.369Z,28.23
2023-07-19T16:43:36.226Z,28.18
2023-07-19T16:46:03.782Z,28.11
2023-07-19T16:48:32.962Z,28.05
2023-07-19T16:50:59.873Z,27.97
2023-07-19T16:53:26.729Z,27.90
2023-07-19T16:55:53.540Z,27.83
2023-07-19T16:58:20.825Z,27.75
2023-07-19T17:00:47.969Z,27.66
2023-07-19T17:03:14.948Z,27.58
2023-07-19T17:05:41.963Z,27.51
2023-07-19T17:08:08.831Z,27.41
2023-07-19T17:10:36.110Z,27.36
2023-07-19T17:13:04.629Z,27.28
2023-07-19T17:15:31.768Z,27.20
2023-07-19T17:18:00.400Z,27.12
2023-07-19T17:20:28.889Z,27.03
2023-07-19T17:22:56.346Z,26.94
2023-07-19T17:25:23.250Z,26.86
2023-07-19T17:27:50.174Z,26.78
2023-07-19T17:30:17.215Z,26.70
2023-07-19T17:32:45.860Z,26.62
2023-07-19T17:35:16.412Z,26.52
2023-07-19T17:37:43.223Z,26.42
2023-07-19T17:40:11.750Z,26.33
2023-07-19T17:42:39.416Z,26.22
2023-07-19T17:45:08.611Z,26.12
2023-07-19T17:47:35.477Z,26.02
2023-07-19T17:50:02.309Z,25.92
2023-07-19T17:52:30.733Z,25.80
2023-07-19T17:54:58.199Z,25.68
2023-07-19T17:57:25.160Z,25.56
2023-07-19T17:59:52.003Z,25.44
2023-07-19T18:02:20.702Z,25.33
2023-07-19T18:04:48.241Z,25.22
2023-07-19T18:07:15.286Z,25.10
2023-07-19T18:09:43.044Z,24.98
2023-07-19T18:12:11.473Z,24.84
2023-07-19T18:14:38.428Z,24.70
2023-07-19T18:17:07.101Z,24.56
2023-07-19T18:19:34.818Z,24.41
2023-07-19T18:22:04.408Z,24.26
2023-07-19T18:24:33.257Z,24.10
2023-07-19T18:27:01.098Z,23.95
2023-07-19T18:29:28.142Z,23.77
2023-07-19T18:31:55.156Z,23.56
2023-07-19T18:34:22.116Z,23.36
2023-07-19T18:36:50.308Z,23.16
2023-07-19T18:39:17.452Z,22.97
2023-07-19T18:41:44.640Z,22.79
2023-07-19T18:44:11.531Z,22.59
2023-07-19T18:46:38.573Z,22.41
2023-07-19T18:49:05.528Z,22.22
2023-07-19T18:51:32.526Z,22.02
2023-07-19T18:53:59.477Z,21.84
2023-07-19T18:56:28.745Z,21.66
2023-07-19T18:58:55.897Z,21.47
2023-07-19T19:01:23.377Z,21.26
2023-07-19T19:03:50.934Z,21.06
2023-07-19T19:06:18.299Z,20.85
2023-07-19T19:08:45.128Z,20.65
2023-07-19T19:11:12.364Z,20.48
2023-07-19T19:13:39.215Z,20.34
2023-07-19T19:16:06.143Z,20.21
2023-07-19T19:18:33.435Z,20.09
2023-07-19T19:21:00.783Z,20.00
2023-07-19T19:23:29.562Z,19.92
2023-07-19T19:25:56.486Z,19.84
2023-07-19T19:28:23.421Z,19.77
2023-07-19T19:30:51.139Z,19.67
2023-07-19T19:33:18.146Z,19.56
2023-07-19T19:35:45.160Z,19.44
2023-07-19T19:38:12.066Z,19.34
2023-07-19T19:40:38.995Z,19.23
2023-07-19T19:43:05.889Z,19.11
2023-07-19T19:45:32.838Z,19.02
2023-07-19T19:47:59.737Z,18.94
2023-07-19T19:50:28.169Z,18.85
2023-07-19T19:53:09.404Z,18.76
2023-07-19T19:58:07.752Z,18.59
2023-07-19T20:00:35.679Z,18.53
2023-07-19T20:08:02.586Z,18.45
2023-07-19T20:10:29.754Z,18.44
2023-07-19T20:12:56.849Z,18.48
2023-07-19T20:15:23.768Z,18.51
2023-07-19T20:17:50.799Z,18.55
2023-07-19T20:20:22.519Z,18.59
2023-07-19T20:22:51.481Z,18.63
2023-07-19T20:25:32.612Z,18.67
2023-07-19T20:28:06.385Z,18.68
2023-07-19T20:30:44.129Z,18.70
2023-07-19T20:33:18.633Z,18.71
2023-07-19T20:43:16.579Z,18.80
2023-07-19T20:45:43.517Z,18.84
2023-07-19T20:48:10.513Z,18.88
2023-07-19T20:50:37.506Z,18.92
2023-07-19T20:53:04.331Z,18.96
2023-07-19T20:55:33.104Z,18.97
2023-07-19T20:58:00.144Z,18.99
2023-07-19T21:00:27.068Z,19.02
2023-07-19T21:02:54.143Z,19.05
2023-07-19T21:05:21.138Z,19.09
2023-07-19T21:07:48.036Z,19.13
2023-07-19T21:10:16.498Z,19.18
2023-07-19T21:12:43.379Z,19.21
2023-07-19T21:15:11.892Z,19.23
2023-07-19T21:17:40.448Z,19.24
2023-07-19T21:20:08.067Z,19.24
2023-07-19T21:22:35.194Z,19.22
2023-07-19T21:27:32.821Z,19.20
2023-07-19T21:29:59.817Z,19.22
2023-07-19T21:32:26.680Z,19.23
2023-07-19T21:34:53.727Z,19.23
2023-07-19T21:37:21.715Z,19.18
2023-07-19T21:39:49.416Z,19.15
2023-07-19T21:42:16.760Z,19.12
2023-07-19T21:44:43.920Z,19.10
2023-07-19T21:47:10.934Z,19.07
2023-07-19T21:49:37.859Z,19.05
2023-07-19T21:52:05.830Z,19.04
2023-07-19T21:54:32.741Z,19.00
2023-07-19T21:56:59.612Z,18.98
2023-07-19T21:59:26.693Z,18.92
2023-07-19T22:01:53.542Z,18.80
2023-07-19T22:04:20.525Z,18.72
2023-07-19T22:06:47.474Z,18.66
2023-07-19T22:09:15.246Z,18.62
2023-07-19T22:11:42.708Z,18.63
2023-07-19T22:14:11.228Z,18.65
2023-07-19T22:16:39.281Z,18.67
2023-07-19T22:19:06.407Z,18.68
2023-07-19T22:21:33.225Z,18.66
2023-07-19T22:24:00.051Z,18.67
2023-07-19T22:26:26.977Z,18.64
2023-07-19T22:29:02.743Z,18.64
2023-07-19T22:31:30.209Z,18.65
2023-07-19T22:33:57.441Z,18.67
2023-07-19T22:36:24.613Z,18.66
2023-07-19T22:38:51.787Z,18.60
2023-07-19T22:41:18.636Z,18.55
2023-07-19T22:43:45.455Z,18.50
2023-07-19T22:46:12.460Z,18.39
2023-07-19T22:48:39.428Z,18.28
2023-07-19T22:51:06.489Z,18.20
2023-07-19T22:53:33.883Z,18.16
2023-07-19T22:56:02.832Z,18.12
2023-07-19T22:58:30.213Z,18.10
2023-07-19T23:00:58.542Z,18.10
2023-07-19T23:03:26.029Z,18.08
2023-07-19T23:05:53.898Z,18.04
2023-07-19T23:08:21.087Z,17.98
2023-07-19T23:10:48.259Z,17.91
2023-07-19T23:13:15.337Z,17.84
2023-07-19T23:15:43.388Z,17.80
2023-07-19T23:18:10.366Z,17.73
2023-07-19T23:20:38.690Z,17.69
2023-07-19T23:23:05.748Z,17.62
2023-07-19T23:25:32.662Z,17.56
2023-07-19T23:28:02.073Z,17.51
2023-07-19T23:30:29.304Z,17.47
2023-07-19T23:32:58.643Z,17.41
2023-07-19T23:35:25.585Z,17.38
2023-07-19T23:37:53.544Z,17.35
2023-07-19T23:40:20.409Z,17.35
2023-07-19T23:42:47.243Z,17.33
2023-07-19T23:45:14.029Z,17.30
2023-07-19T23:47:41.148Z,17.27
2023-07-19T23:50:08.530Z,17.21
2023-07-19T23:52:35.484Z,17.15
2023-07-19T23:55:04.594Z,17.10
2023-07-19T23:57:31.366Z,17.08
2023-07-19T23:59:58.239Z,17.09
